createdAt,value
2019-02-12T00:00:04.782Z,4.20
2019-02-12T00:02:33.874Z,4.20
2019-02-12T00:05:02.935Z,4.20
2019-02-12T00:07:32.070Z,4.20
2019-02-12T00:10:01.063Z,4.20
2019-02-12T00:12:30.103Z,4.20
2019-02-12T00:14:59.169Z,4.20
2019-02-12T00:17:28.250Z,4.10
2019-02-12T00:19:57.236Z,4.10
2019-02-12T00:22:26.249Z,4.10
2019-02-12T00:24:55.205Z,4.10
2019-02-12T00:27:24.300Z,4.10
2019-02-12T00:29:53.329Z,4.10
2019-02-12T00:32:22.447Z,4.10
2019-02-12T00:34:53.540Z,4.10
2019-02-12T00:37:22.622Z,4.10
2019-02-12T00:39:51.607Z,4.00
2019-02-12T00:42:20.637Z,4.00
2019-02-12T00:44:49.685Z,4.00
2019-02-12T00:47:18.717Z,3.90
2019-02-12T00:49:47.792Z,3.90
2019-02-12T00:52:16.882Z,3.90
2019-02-12T00:54:46.050Z,3.90
2019-02-12T00:57:15.247Z,3.80
2019-02-12T00:59:44.250Z,3.80
2019-02-12T01:02:13.288Z,3.80
2019-02-12T01:04:42.476Z,3.80
2019-02-12T01:07:11.506Z,3.80
2019-02-12T01:09:40.575Z,3.80
2019-02-12T01:12:09.608Z,3.70
2019-02-12T01:14:39.823Z,3.70
2019-02-12T01:17:11.232Z,3.70
2019-02-12T01:19:40.480Z,3.70
2019-02-12T01:22:09.683Z,3.70
2019-02-12T01:24:38.809Z,3.60
2019-02-12T01:27:07.183Z,3.60
2019-02-12T01:29:36.302Z,3.60
2019-02-12T01:32:05.381Z,3.60
2019-02-12T01:34:34.536Z,3.60
2019-02-12T01:37:06.413Z,3.50
2019-02-12T01:39:37.367Z,3.50
2019-02-12T01:42:08.276Z,3.50
2019-02-12T01:44:37.425Z,3.50
2019-02-12T01:47:06.505Z,3.50
2019-02-12T01:49:35.571Z,3.50
2019-02-12T01:52:04.643Z,3.50
2019-02-12T01:54:33.725Z,3.40
2019-02-12T01:57:02.811Z,3.40
2019-02-12T01:59:31.873Z,3.40
2019-02-12T02:02:00.887Z,3.40
2019-02-12T02:04:29.966Z,3.40
2019-02-12T02:06:59.036Z,3.50
2019-02-12T02:09:28.091Z,3.50
2019-02-12T02:11:57.237Z,3.50
2019-02-12T02:14:26.335Z,3.50
2019-02-12T02:16:55.899Z,3.50
2019-02-12T02:19:26.892Z,3.50
2019-02-12T02:21:57.853Z,3.50
2019-02-12T02:24:28.935Z,3.50
2019-02-12T02:26:59.841Z,3.50
2019-02-12T02:29:30.910Z,3.50
2019-02-12T02:32:01.848Z,3.50
2019-02-12T02:34:33.123Z,3.50
2019-02-12T02:37:03.968Z,3.50
2019-02-12T02:39:33.090Z,3.50
2019-02-12T02:42:02.123Z,3.50
2019-02-12T02:44:31.200Z,3.50
2019-02-12T02:47:00.406Z,3.40
2019-02-12T02:49:29.511Z,3.40
2019-02-12T02:51:58.587Z,3.40
2019-02-12T02:54:27.722Z,3.40
2019-02-12T02:56:59.659Z,3.30
2019-02-12T02:59:31.321Z,3.30
2019-02-12T03:02:03.153Z,3.20
2019-02-12T03:04:34.814Z,3.10
2019-02-12T03:07:06.279Z,3.10
2019-02-12T03:09:37.659Z,3.10
2019-02-12T03:12:08.997Z,3.00
2019-02-12T03:14:40.342Z,2.90
2019-02-12T03:17:11.771Z,2.90
2019-02-12T03:19:43.830Z,2.80
2019-02-12T03:22:15.068Z,2.70
2019-02-12T03:24:47.340Z,2.70
2019-02-12T03:27:18.738Z,2.60
2019-02-12T03:29:50.073Z,2.60
2019-02-12T03:32:21.705Z,2.60
2019-02-12T03:34:53.118Z,2.60
2019-02-12T03:37:24.478Z,2.50
2019-02-12T03:39:56.123Z,2.50
2019-02-12T03:42:28.749Z,2.40
2019-02-12T03:45:00.542Z,2.40
2019-02-12T03:47:31.827Z,2.40
2019-02-12T03:50:03.625Z,2.40
2019-02-12T03:52:35.494Z,2.40
2019-02-12T03:55:07.892Z,2.40
2019-02-12T03:57:39.203Z,2.40
2019-02-12T04:00:12.827Z,2.40
2019-02-12T04:03:15.745Z,2.40
2019-02-12T04:05:47.009Z,2.40
2019-02-12T04:08:18.303Z,2.40
2019-02-12T04:10:49.660Z,2.50
2019-02-12T04:13:21.070Z,2.40
2019-02-12T04:15:52.552Z,2.50
2019-02-12T04:18:23.858Z,2.40
2019-02-12T04:20:55.056Z,2.40
2019-02-12T04:23:26.591Z,2.30
2019-02-12T04:26:00.111Z,2.30
2019-02-12T04:28:31.371Z,2.40
2019-02-12T04:31:02.844Z,2.40
2019-02-12T04:33:34.465Z,2.40
2019-02-12T04:36:05.845Z,2.50
2019-02-12T04:38:37.282Z,2.50
2019-02-12T04:41:08.859Z,2.60
2019-02-12T04:43:40.262Z,2.60
2019-02-12T04:46:11.536Z,2.60
2019-02-12T04:48:42.952Z,2.70
2019-02-12T04:51:14.291Z,2.70
2019-02-12T04:53:47.442Z,2.70
2019-02-12T04:56:18.784Z,2.80
2019-02-12T04:58:50.491Z,2.80
2019-02-12T05:01:21.809Z,2.80
2019-02-12T05:03:53.603Z,2.90
2019-02-12T05:06:25.098Z,2.90
2019-02-12T05:09:26.147Z,2.90
2019-02-12T05:12:02.907Z,2.90
2019-02-12T05:14:34.495Z,3.00
2019-02-12T05:17:05.882Z,3.00
2019-02-12T05:19:37.083Z,3.00
2019-02-12T05:22:08.544Z,3.00
2019-02-12T05:24:39.820Z,3.00
2019-02-12T05:27:11.071Z,3.00
2019-02-12T05:29:42.434Z,3.00
2019-02-12T05:32:13.894Z,3.10
2019-02-12T05:34:45.340Z,3.10
2019-02-12T05:37:16.530Z,3.10
2019-02-12T05:39:47.785Z,3.10
2019-02-12T05:42:19.052Z,3.10
2019-02-12T05:44:50.219Z,3.10
2019-02-12T05:47:21.640Z,3.20
2019-02-12T05:49:54.365Z,3.20
2019-02-12T05:52:25.745Z,3.20
2019-02-12T05:54:57.225Z,3.20
2019-02-12T05:57:28.477Z,3.20
2019-02-12T06:00:00.045Z,3.20
2019-02-12T06:02:34.399Z,3.20
2019-02-12T06:05:06.095Z,3.20
2019-02-12T06:07:37.704Z,3.20
2019-02-12T06:10:10.106Z,3.10
2019-02-12T06:12:43.289Z,3.10
2019-02-12T06:15:14.664Z,3.20
2019-02-12T06:17:47.499Z,3.20
2019-02-12T06:20:19.027Z,3.20
2019-02-12T06:22:50.551Z,3.10
2019-02-12T06:25:22.230Z,3.10
2019-02-12T06:27:53.605Z,3.10
2019-02-12T06:30:25.001Z,3.10
2019-02-12T06:32:56.366Z,3.10
2019-02-12T06:35:27.709Z,3.00
2019-02-12T06:37:56.859Z,3.00
2019-02-12T06:40:26.013Z,3.00
2019-02-12T06:42:55.108Z,3.00
2019-02-12T06:45:24.135Z,2.90
2019-02-12T06:47:53.195Z,2.90
2019-02-12T06:50:22.270Z,2.90
2019-02-12T06:52:51.375Z,2.90
2019-02-12T06:55:20.526Z,2.90
2019-02-12T06:57:49.613Z,2.90
2019-02-12T07:00:18.669Z,2.90
2019-02-12T07:03:19.816Z,2.90
2019-02-12T07:05:58.687Z,2.90
2019-02-12T07:09:05.309Z,2.90
2019-02-12T07:12:03.776Z,2.90
2019-02-12T07:14:55.636Z,3.00
2019-02-12T07:18:33.325Z,3.00
2019-02-12T07:21:39.911Z,2.90
2019-02-12T07:24:34.404Z,3.00
2019-02-12T07:27:35.019Z,3.00
2019-02-12T07:30:29.725Z,3.00
2019-02-12T07:33:47.921Z,3.00
2019-02-12T07:36:59.986Z,3.00
2019-02-12T07:40:08.995Z,3.00
2019-02-12T07:42:49.743Z,3.00
2019-02-12T07:45:41.444Z,3.00
2019-02-12T07:48:33.261Z,2.90
2019-02-12T07:51:43.696Z,2.90
2019-02-12T07:54:56.268Z,2.90
2019-02-12T07:58:01.276Z,2.90
2019-02-12T08:01:08.583Z,2.90
2019-02-12T08:04:01.382Z,3.00
2019-02-12T08:07:05.962Z,3.00
2019-02-12T08:10:22.280Z,3.00
2019-02-12T08:13:14.184Z,3.10
2019-02-12T08:15:58.207Z,3.20
2019-02-12T08:18:53.212Z,3.20
2019-02-12T08:21:48.854Z,3.30
2019-02-12T08:24:40.539Z,3.30
2019-02-12T08:28:08.637Z,3.30
2019-02-12T08:31:21.475Z,3.30
2019-02-12T08:34:21.076Z,3.30
2019-02-12T08:37:36.779Z,3.40
2019-02-12T08:40:28.485Z,3.40
2019-02-12T08:43:09.579Z,3.50
2019-02-12T08:46:40.800Z,3.50
2019-02-12T08:49:43.560Z,3.50
2019-02-12T08:53:09.303Z,3.60
2019-02-12T08:56:19.861Z,3.60
2019-02-12T08:59:11.330Z,3.70
2019-02-12T09:02:07.312Z,3.70
2019-02-12T09:04:55.206Z,3.70
2019-02-12T09:07:41.187Z,3.70
2019-02-12T09:11:06.497Z,3.80
2019-02-12T09:14:06.498Z,3.80
2019-02-12T09:17:26.030Z,3.90
2019-02-12T12:56:42.551Z,6.20
2019-02-12T12:59:11.604Z,6.20
2019-02-12T13:02:04.491Z,6.30
2019-02-12T13:05:25.800Z,6.30
2019-02-12T13:07:54.918Z,6.40
2019-02-12T13:10:24.025Z,6.40
2019-02-12T13:12:53.045Z,6.50
2019-02-12T13:15:22.177Z,6.50
2019-02-12T13:17:51.292Z,6.60
2019-02-12T13:20:20.421Z,6.60
2019-02-12T13:22:49.502Z,6.70
2019-02-12T13:25:18.552Z,6.70
2019-02-12T13:27:47.632Z,6.70
2019-02-12T13:30:16.862Z,6.70
2019-02-12T13:32:46.017Z,6.80
2019-02-12T13:35:15.147Z,6.90
2019-02-12T13:37:44.198Z,7.00
2019-02-12T13:40:13.287Z,7.00
2019-02-12T13:42:42.428Z,7.20
2019-02-12T13:45:13.535Z,7.40
2019-02-12T13:47:42.660Z,7.50
2019-02-12T13:50:11.992Z,7.70
2019-02-12T13:52:41.080Z,7.70
2019-02-12T13:55:17.000Z,7.70
2019-02-12T13:57:41.165Z,7.70
2019-02-12T14:00:12.541Z,7.90
2019-02-12T14:02:41.616Z,8.20
2019-02-12T14:05:13.250Z,8.40
2019-02-12T14:07:42.400Z,8.60
2019-02-12T14:10:11.627Z,8.30
2019-02-12T14:12:40.738Z,8.20
2019-02-12T14:15:11.027Z,8.10
2019-02-12T14:17:40.153Z,7.80
2019-02-12T14:20:11.183Z,7.70
2019-02-12T14:22:40.343Z,7.60
2019-02-12T14:25:10.311Z,7.50
2019-02-12T14:27:39.474Z,7.40
2019-02-12T14:30:10.308Z,7.40
2019-02-12T14:32:39.438Z,7.30
2019-02-12T14:35:09.003Z,7.40
2019-02-12T14:37:38.102Z,7.40
2019-02-12T14:40:07.822Z,7.40
2019-02-12T14:42:36.982Z,7.40
2019-02-12T14:45:07.831Z,7.40
2019-02-12T14:47:36.940Z,7.50
2019-02-12T14:50:06.725Z,7.40
2019-02-12T14:52:35.773Z,7.30
2019-02-12T14:55:05.031Z,7.30
2019-02-12T14:57:34.047Z,7.20
2019-02-12T15:00:03.164Z,7.10
2019-02-12T15:02:32.211Z,7.10
2019-02-12T15:05:01.308Z,7.00
2019-02-12T15:07:30.479Z,7.00
2019-02-12T15:09:59.583Z,7.00
2019-02-12T15:12:28.671Z,7.00
2019-02-12T15:14:57.737Z,7.00
2019-02-12T15:17:26.868Z,6.90
2019-02-12T15:19:55.884Z,6.90
2019-02-12T15:22:25.004Z,6.90
2019-02-12T15:24:54.115Z,6.90
2019-02-12T15:27:23.193Z,6.90
2019-02-12T15:29:52.323Z,6.80
2019-02-12T15:32:21.417Z,6.80
2019-02-12T15:34:50.513Z,6.80
2019-02-12T15:37:19.709Z,6.80
2019-02-12T15:39:48.743Z,6.80
2019-02-12T15:42:17.826Z,6.70
2019-02-12T15:44:46.822Z,6.70
2019-02-12T15:47:15.941Z,6.70
2019-02-12T15:49:45.028Z,6.70
2019-02-12T15:52:15.531Z,6.70
2019-02-12T15:54:44.623Z,6.70
2019-02-12T15:57:13.694Z,6.60
2019-02-12T15:59:43.060Z,6.60
2019-02-12T16:02:13.677Z,6.60
2019-02-12T16:04:43.051Z,6.50
2019-02-12T16:07:12.097Z,6.50
2019-02-12T16:09:41.693Z,6.50
2019-02-12T16:12:11.023Z,6.40
2019-02-12T16:14:42.142Z,6.40
2019-02-12T16:17:12.817Z,6.40
2019-02-12T16:19:42.900Z,6.30
2019-02-12T16:22:12.098Z,6.30
2019-02-12T16:24:41.437Z,6.20
2019-02-12T16:27:10.532Z,6.20
2019-02-12T16:29:42.325Z,6.10
2019-02-12T16:32:11.213Z,6.10
2019-02-12T16:34:42.856Z,6.10
2019-02-12T16:37:11.812Z,6.00
2019-02-12T16:39:43.040Z,6.00
2019-02-12T16:42:12.171Z,5.90
2019-02-12T16:44:41.275Z,5.90
2019-02-12T16:47:10.436Z,5.80
2019-02-12T16:49:39.439Z,5.80
2019-02-12T16:52:10.014Z,5.80
2019-02-12T16:54:39.635Z,5.70
2019-02-12T16:57:08.803Z,5.70
2019-02-12T16:59:37.916Z,5.70
2019-02-12T17:02:07.013Z,5.60
2019-02-12T17:04:36.110Z,5.70
2019-02-12T17:07:05.167Z,5.60
2019-02-12T17:09:34.242Z,5.60
2019-02-12T17:12:03.293Z,5.70
2019-02-12T17:14:32.433Z,5.60
2019-02-12T17:17:01.504Z,5.60
2019-02-12T17:19:30.648Z,5.60
2019-02-12T17:22:00.003Z,5.50
2019-02-12T17:24:29.169Z,5.50
2019-02-12T17:26:58.251Z,5.40
2019-02-12T17:29:27.352Z,5.40
2019-02-12T17:31:56.498Z,5.40
2019-02-12T17:34:25.617Z,5.40
2019-02-12T17:36:54.711Z,5.40
2019-02-12T17:39:23.769Z,5.40
2019-02-12T17:41:52.879Z,5.30
2019-02-12T17:44:21.976Z,5.30
2019-02-12T17:46:51.242Z,5.30
2019-02-12T17:49:20.454Z,5.20
2019-02-12T17:51:49.513Z,5.20
2019-02-12T17:54:18.604Z,5.10
2019-02-12T17:56:48.956Z,5.10
2019-02-12T17:59:18.039Z,5.00
2019-02-12T18:01:48.388Z,5.00
2019-02-12T18:04:17.548Z,5.00
2019-02-12T18:06:47.039Z,5.00
2019-02-12T18:09:16.206Z,5.00
2019-02-12T18:11:45.477Z,4.90
2019-02-12T18:14:17.764Z,4.90
2019-02-12T18:16:46.944Z,4.90
2019-02-12T18:19:16.017Z,4.90
2019-02-12T18:21:45.256Z,4.80
2019-02-12T18:24:14.330Z,4.80
2019-02-12T18:26:44.887Z,4.80
2019-02-12T18:29:13.987Z,4.70
2019-02-12T18:31:43.100Z,4.70
2019-02-12T18:34:12.186Z,4.70
2019-02-12T18:36:41.300Z,4.60
2019-02-12T18:39:10.412Z,4.60
2019-02-12T18:41:39.405Z,4.60
2019-02-12T18:44:08.571Z,4.50
2019-02-12T18:46:37.612Z,4.50
2019-02-12T18:49:06.752Z,4.40
2019-02-12T18:51:35.830Z,4.40
2019-02-12T18:54:04.891Z,4.40
2019-02-12T18:56:41.407Z,4.40
2019-02-12T18:59:04.876Z,4.30
2019-02-12T19:01:33.984Z,4.30
2019-02-12T19:04:02.988Z,4.30
2019-02-12T19:06:32.096Z,4.40
2019-02-12T19:09:01.168Z,4.30
2019-02-12T19:11:30.210Z,4.30
2019-02-12T19:13:59.383Z,4.30
2019-02-12T19:16:28.601Z,4.30
2019-02-12T19:18:57.771Z,4.30
2019-02-12T19:21:26.838Z,4.40
2019-02-12T19:23:55.935Z,4.40
2019-02-12T19:26:24.921Z,4.30
2019-02-12T19:28:54.391Z,4.30
2019-02-12T19:31:23.456Z,4.30
2019-02-12T19:33:52.702Z,4.40
2019-02-12T19:36:22.351Z,4.40
2019-02-12T19:38:51.466Z,4.30
2019-02-12T19:41:20.548Z,4.30
2019-02-12T19:43:49.683Z,4.30
2019-02-12T19:46:18.826Z,4.40
2019-02-12T19:48:47.912Z,4.30
2019-02-12T19:51:17.134Z,4.30
2019-02-12T19:53:46.290Z,4.30
2019-02-12T19:56:15.488Z,4.30
2019-02-12T19:58:44.716Z,4.30
2019-02-12T20:01:14.118Z,4.30
2019-02-12T20:03:43.713Z,4.30
2019-02-12T20:06:12.869Z,4.30
2019-02-12T20:08:41.962Z,4.30
2019-02-12T20:11:11.091Z,4.30
2019-02-12T20:13:40.263Z,4.30
2019-02-12T20:16:09.424Z,4.30
2019-02-12T20:18:38.732Z,4.30
2019-02-12T20:21:07.943Z,4.20
2019-02-12T20:23:37.122Z,4.30
2019-02-12T20:26:06.281Z,4.30
2019-02-12T20:28:35.566Z,4.30
2019-02-12T20:31:04.779Z,4.30
2019-02-12T20:33:34.066Z,4.20
2019-02-12T20:36:03.471Z,4.20
2019-02-12T20:38:32.570Z,4.20
2019-02-12T20:41:01.770Z,4.20
2019-02-12T20:43:30.904Z,4.20
2019-02-12T20:46:00.618Z,4.20
2019-02-12T20:48:30.222Z,4.10
2019-02-12T20:50:59.444Z,4.10
2019-02-12T20:53:28.618Z,4.10
2019-02-12T20:55:57.697Z,4.00
2019-02-12T20:58:26.852Z,4.00
2019-02-12T21:00:58.141Z,4.00
2019-02-12T21:03:27.771Z,4.00
2019-02-12T21:05:57.003Z,4.00
2019-02-12T21:08:26.472Z,4.00
2019-02-12T21:10:55.569Z,3.90
2019-02-12T21:13:24.699Z,3.90
2019-02-12T21:15:56.732Z,4.00
2019-02-12T21:18:25.889Z,4.00
2019-02-12T21:20:54.969Z,4.00
2019-02-12T21:23:25.835Z,4.10
2019-02-12T21:25:55.100Z,4.10
2019-02-12T21:28:24.280Z,4.10
2019-02-12T21:30:53.426Z,4.10
2019-02-12T21:33:22.467Z,4.10
2019-02-12T21:35:51.671Z,4.10
2019-02-12T21:38:21.221Z,4.10
2019-02-12T21:40:50.444Z,4.10
2019-02-12T21:43:19.577Z,4.10
2019-02-12T21:45:48.841Z,4.20
2019-02-12T21:48:17.917Z,4.30
2019-02-12T21:50:47.053Z,4.40
2019-02-12T21:53:16.234Z,4.50
2019-02-12T21:55:45.295Z,4.50
2019-02-12T21:58:14.381Z,4.60
2019-02-12T22:00:43.627Z,4.60
2019-02-12T22:03:12.729Z,4.60
2019-02-12T22:05:41.842Z,4.70
2019-02-12T22:08:11.152Z,4.70
2019-02-12T22:10:46.271Z,4.70
2019-02-12T22:13:13.115Z,4.70
2019-02-12T22:15:42.310Z,4.70
2019-02-12T22:18:11.383Z,4.70
2019-02-12T22:20:40.434Z,4.70
2019-02-12T22:23:09.416Z,4.70
2019-02-12T22:25:38.449Z,4.70
2019-02-12T22:28:07.518Z,4.70
2019-02-12T22:30:36.608Z,4.80
2019-02-12T22:33:05.817Z,4.80
2019-02-12T22:35:34.823Z,4.80
2019-02-12T22:38:03.875Z,4.80
2019-02-12T22:40:32.893Z,4.90
2019-02-12T22:43:02.064Z,4.90
2019-02-12T22:45:31.074Z,4.90
2019-02-12T22:48:00.225Z,4.90
2019-02-12T22:50:29.274Z,4.90
2019-02-12T22:52:58.363Z,4.90
2019-02-12T22:55:27.352Z,4.90
2019-02-12T22:57:56.518Z,5.00
2019-02-12T23:00:50.867Z,5.00
2019-02-12T23:03:20.252Z,5.00
2019-02-12T23:05:49.404Z,5.10
2019-02-12T23:08:18.505Z,5.10
2019-02-12T23:10:47.626Z,5.10
2019-02-12T23:13:16.725Z,5.10
2019-02-12T23:15:45.789Z,5.10
2019-02-12T23:18:14.888Z,5.10
2019-02-12T23:20:43.945Z,5.10
2019-02-12T23:23:13.089Z,5.10
2019-02-12T23:25:42.284Z,5.10
2019-02-12T23:28:12.468Z,5.10
2019-02-12T23:30:41.600Z,5.10
2019-02-12T23:33:10.719Z,5.10
2019-02-12T23:35:39.715Z,5.10
2019-02-12T23:38:08.804Z,5.10
2019-02-12T23:40:37.783Z,5.20
2019-02-12T23:43:06.787Z,5.10
2019-02-12T23:45:35.752Z,5.10
2019-02-12T23:48:04.902Z,5.20
2019-02-12T23:50:33.948Z,5.20
2019-02-12T23:53:02.991Z,5.20
2019-02-12T23:55:31.994Z,5.10
2019-02-12T23:58:06.087Z,5.20
